KPWM/PWM METAR and TAF weather

Enter ICAO airport designator
Station Type Date Time Source
KPWM METAR 2020/02/22 05:51 UTC NOAA

KPWM 220551Z AUTO 23008KT 10SM CLR M04/M16 A3014 RMK AO2 SLP209 T10391161 11028 21039 56024


Station Type Date Time Source
KPWM Decoded METAR 2020/02/22 05:51 UTC NOAA

PORTLAND INTERNATIONAL JETPORT, ME, United States (KPWM) 43-39N 70-18W 15M
Feb 22, 2020 - 12:51 AM EST / 2020.02.22 0551 UTC
Wind: from the SW (230 degrees) at 9 MPH (8 KT):0
Visibility: 10 mile(s):0
Sky conditions: clear
Temperature: 25.0 F (-3.9 C)
Windchill: 15 F (-9 C):1
Dew Point: 3.0 F (-16.1 C)
Relative Humidity: 38%
Pressure (altimeter): 30.14 in. Hg (1020 hPa)
Pressure tendency: 0.07 inches (2.4 hPa) lower than three hours ago
ob: KPWM 220551Z AUTO 23008KT 10SM CLR M04/M16 A3014 RMK AO2 SLP209 T10391161 11028 21039 56024
cycle: 6

Station Type Date Time Source
KPWM TAF 2020/02/22 06:24 UTC NOAA

TAF KPWM 220522Z 2206/2306 23006KT P6SM SKC
FM221300 27008KT P6SM SKC

Example: see airport list